sensor_id;sensor_type;location;lat;lon;timestamp;temperature;humidity
23452;DHT22;11898;51.130;6.780;2022-09-25T00:01:32;16.60;99.90
23452;DHT22;11898;51.130;6.780;2022-09-25T00:04:00;16.60;99.90
23452;DHT22;11898;51.130;6.780;2022-09-25T00:06:30;16.60;99.90
23452;DHT22;11898;51.130;6.780;2022-09-25T00:09:00;16.60;99.90
23452;DHT22;11898;51.130;6.780;2022-09-25T00:11:30;16.60;99.90
23452;DHT22;11898;51.130;6.780;2022-09-25T00:14:00;16.50;99.90
23452;DHT22;11898;51.130;6.780;2022-09-25T00:16:30;16.50;99.90
23452;DHT22;11898;51.130;6.780;2022-09-25T00:19:00;16.50;99.90
23452;DHT22;11898;51.130;6.780;2022-09-25T00:21:46;16.50;99.90
23452;DHT22;11898;51.130;6.780;2022-09-25T00:24:16;16.50;99.90
23452;DHT22;11898;51.130;6.780;2022-09-25T00:26:45;16.50;99.90
23452;DHT22;11898;51.130;6.780;2022-09-25T00:29:16;16.50;99.90
23452;DHT22;11898;51.130;6.780;2022-09-25T00:31:45;16.50;99.90
23452;DHT22;11898;51.130;6.780;2022-09-25T00:34:14;16.50;99.90
23452;DHT22;11898;51.130;6.780;2022-09-25T00:36:42;16.50;99.90
23452;DHT22;11898;51.130;6.780;2022-09-25T00:39:11;16.50;99.90
23452;DHT22;11898;51.130;6.780;2022-09-25T00:41:40;16.50;99.90
23452;DHT22;11898;51.130;6.780;2022-09-25T00:47:10;16.40;99.90
23452;DHT22;11898;51.130;6.780;2022-09-25T00:49:40;16.40;99.90
23452;DHT22;11898;51.130;6.780;2022-09-25T00:52:11;16.40;99.90
23452;DHT22;11898;51.130;6.780;2022-09-25T00:54:49;16.40;99.90
23452;DHT22;11898;51.130;6.780;2022-09-25T00:57:21;16.40;99.90
23452;DHT22;11898;51.130;6.780;2022-09-25T00:59:55;16.40;99.90
23452;DHT22;11898;51.130;6.780;2022-09-25T01:02:26;16.40;99.90
23452;DHT22;11898;51.130;6.780;2022-09-25T01:05:02;16.40;99.90
23452;DHT22;11898;51.130;6.780;2022-09-25T01:07:31;16.40;99.90
23452;DHT22;11898;51.130;6.780;2022-09-25T01:10:02;16.40;99.90
23452;DHT22;11898;51.130;6.780;2022-09-25T01:12:31;16.40;99.90
23452;DHT22;11898;51.130;6.780;2022-09-25T01:15:00;16.40;99.90
23452;DHT22;11898;51.130;6.780;2022-09-25T01:20:39;16.30;99.90
23452;DHT22;11898;51.130;6.780;2022-09-25T01:23:29;16.30;99.90
23452;DHT22;11898;51.130;6.780;2022-09-25T01:26:19;16.30;99.90
23452;DHT22;11898;51.130;6.780;2022-09-25T01:28:59;16.30;99.90
23452;DHT22;11898;51.130;6.780;2022-09-25T01:31:46;16.30;99.90
23452;DHT22;11898;51.130;6.780;2022-09-25T01:34:20;16.30;99.90
23452;DHT22;11898;51.130;6.780;2022-09-25T01:36:54;16.30;99.90
23452;DHT22;11898;51.130;6.780;2022-09-25T01:39:28;16.20;99.90
23452;DHT22;11898;51.130;6.780;2022-09-25T01:42:10;16.20;99.90
23452;DHT22;11898;51.130;6.780;2022-09-25T01:44:34;16.20;99.90
23452;DHT22;11898;51.130;6.780;2022-09-25T01:47:08;16.20;99.90
23452;DHT22;11898;51.130;6.780;2022-09-25T01:49:42;16.30;99.90
23452;DHT22;11898;51.130;6.780;2022-09-25T01:52:14;16.20;99.90
23452;DHT22;11898;51.130;6.780;2022-09-25T01:54:48;16.20;99.90
23452;DHT22;11898;51.130;6.780;2022-09-25T01:57:23;16.20;99.90
23452;DHT22;11898;51.130;6.780;2022-09-25T02:00:04;16.20;99.90
23452;DHT22;11898;51.130;6.780;2022-09-25T02:02:32;16.20;99.90
23452;DHT22;11898;51.130;6.780;2022-09-25T02:05:08;16.20;99.90
23452;DHT22;11898;51.130;6.780;2022-09-25T02:07:40;16.20;99.90
23452;DHT22;11898;51.130;6.780;2022-09-25T02:10:21;16.20;99.90
23452;DHT22;11898;51.130;6.780;2022-09-25T02:12:48;16.20;99.90
23452;DHT22;11898;51.130;6.780;2022-09-25T02:15:20;16.10;99.90
23452;DHT22;11898;51.130;6.780;2022-09-25T02:17:58;16.10;99.90
23452;DHT22;11898;51.130;6.780;2022-09-25T02:20:47;16.10;99.90
23452;DHT22;11898;51.130;6.780;2022-09-25T02:23:26;16.10;99.90
23452;DHT22;11898;51.130;6.780;2022-09-25T02:26:08;16.10;99.90
23452;DHT22;11898;51.130;6.780;2022-09-25T02:28:38;16.10;99.90
23452;DHT22;11898;51.130;6.780;2022-09-25T02:31:09;16.10;99.90
23452;DHT22;11898;51.130;6.780;2022-09-25T02:33:39;16.10;99.90
23452;DHT22;11898;51.130;6.780;2022-09-25T02:36:19;16.10;99.90
23452;DHT22;11898;51.130;6.780;2022-09-25T02:38:50;16.00;99.90
23452;DHT22;11898;51.130;6.780;2022-09-25T02:41:36;16.00;99.90
23452;DHT22;11898;51.130;6.780;2022-09-25T02:55:29;15.80;99.90
23452;DHT22;11898;51.130;6.780;2022-09-25T02:57:18;15.80;99.90
23452;DHT22;11898;51.130;6.780;2022-09-25T02:59:51;15.80;99.90
23452;DHT22;11898;51.130;6.780;2022-09-25T03:02:16;15.80;99.90
23452;DHT22;11898;51.130;6.780;2022-09-25T03:04:47;15.80;99.90
23452;DHT22;11898;51.130;6.780;2022-09-25T03:07:18;15.80;99.90
23452;DHT22;11898;51.130;6.780;2022-09-25T03:09:48;15.80;99.90
23452;DHT22;11898;51.130;6.780;2022-09-25T03:12:18;15.80;99.90
23452;DHT22;11898;51.130;6.780;2022-09-25T03:14:47;15.80;99.90
23452;DHT22;11898;51.130;6.780;2022-09-25T03:17:15;15.80;99.90
23452;DHT22;11898;51.130;6.780;2022-09-25T03:19:44;15.70;99.90
23452;DHT22;11898;51.130;6.780;2022-09-25T03:22:12;15.80;99.90
23452;DHT22;11898;51.130;6.780;2022-09-25T03:24:41;15.80;99.90
23452;DHT22;11898;51.130;6.780;2022-09-25T03:27:09;15.80;99.90
23452;DHT22;11898;51.130;6.780;2022-09-25T03:29:38;15.70;99.90
23452;DHT22;11898;51.130;6.780;2022-09-25T03:32:07;15.70;99.90
23452;DHT22;11898;51.130;6.780;2022-09-25T03:34:36;15.70;99.90
23452;DHT22;11898;51.130;6.780;2022-09-25T03:37:05;15.80;99.90
23452;DHT22;11898;51.130;6.780;2022-09-25T03:39:33;15.70;99.90
23452;DHT22;11898;51.130;6.780;2022-09-25T03:42:03;15.70;99.90
23452;DHT22;11898;51.130;6.780;2022-09-25T03:44:32;15.70;99.90
23452;DHT22;11898;51.130;6.780;2022-09-25T03:47:00;15.70;99.90
23452;DHT22;11898;51.130;6.780;2022-09-25T03:49:29;15.80;99.90
23452;DHT22;11898;51.130;6.780;2022-09-25T03:51:57;15.80;99.90
23452;DHT22;11898;51.130;6.780;2022-09-25T03:54:26;15.80;99.90
23452;DHT22;11898;51.130;6.780;2022-09-25T03:56:55;15.80;99.90
23452;DHT22;11898;51.130;6.780;2022-09-25T03:59:24;15.80;99.90
23452;DHT22;11898;51.130;6.780;2022-09-25T04:01:53;15.70;99.90
23452;DHT22;11898;51.130;6.780;2022-09-25T04:04:21;15.70;99.90
23452;DHT22;11898;51.130;6.780;2022-09-25T04:06:50;15.80;99.90
23452;DHT22;11898;51.130;6.780;2022-09-25T04:09:19;15.70;99.90
23452;DHT22;11898;51.130;6.780;2022-09-25T04:11:47;15.80;99.90
23452;DHT22;11898;51.130;6.780;2022-09-25T04:14:16;15.80;99.90
23452;DHT22;11898;51.130;6.780;2022-09-25T04:16:45;15.70;99.90
23452;DHT22;11898;51.130;6.780;2022-09-25T04:19:13;15.80;99.90
23452;DHT22;11898;51.130;6.780;2022-09-25T04:21:43;15.70;99.90
23452;DHT22;11898;51.130;6.780;2022-09-25T04:24:11;15.70;99.90
23452;DHT22;11898;51.130;6.780;2022-09-25T04:26:48;15.70;99.90
23452;DHT22;11898;51.130;6.780;2022-09-25T04:29:18;15.70;99.90
23452;DHT22;11898;51.130;6.780;2022-09-25T04:31:47;15.70;99.90
23452;DHT22;11898;51.130;6.780;2022-09-25T04:34:18;15.70;99.90
23452;DHT22;11898;51.130;6.780;2022-09-25T04:36:46;15.70;99.90
23452;DHT22;11898;51.130;6.780;2022-09-25T04:39:15;15.70;99.90
23452;DHT22;11898;51.130;6.780;2022-09-25T04:41:45;15.60;99.90
23452;DHT22;11898;51.130;6.780;2022-09-25T04:44:14;15.60;99.90
23452;DHT22;11898;51.130;6.780;2022-09-25T04:46:43;15.60;99.90
23452;DHT22;11898;51.130;6.780;2022-09-25T04:49:11;15.60;99.90
23452;DHT22;11898;51.130;6.780;2022-09-25T04:51:40;15.60;99.90
23452;DHT22;11898;51.130;6.780;2022-09-25T04:54:08;15.60;99.90
23452;DHT22;11898;51.130;6.780;2022-09-25T04:56:37;15.50;99.90
23452;DHT22;11898;51.130;6.780;2022-09-25T04:59:05;15.50;99.90
23452;DHT22;11898;51.130;6.780;2022-09-25T05:01:34;15.50;99.90
23452;DHT22;11898;51.130;6.780;2022-09-25T05:04:03;15.20;99.90
23452;DHT22;11898;51.130;6.780;2022-09-25T05:06:33;15.40;99.90
23452;DHT22;11898;51.130;6.780;2022-09-25T05:09:01;15.30;99.90
23452;DHT22;11898;51.130;6.780;2022-09-25T05:11:30;15.30;99.90
23452;DHT22;11898;51.130;6.780;2022-09-25T05:13:59;15.30;99.90
23452;DHT22;11898;51.130;6.780;2022-09-25T05:16:27;15.20;99.90
23452;DHT22;11898;51.130;6.780;2022-09-25T05:18:57;15.10;99.90
23452;DHT22;11898;51.130;6.780;2022-09-25T05:21:26;15.00;99.90
23452;DHT22;11898;51.130;6.780;2022-09-25T05:23:54;15.00;99.90
23452;DHT22;11898;51.130;6.780;2022-09-25T05:26:23;15.00;99.90
23452;DHT22;11898;51.130;6.780;2022-09-25T05:28:52;15.00;99.90
23452;DHT22;11898;51.130;6.780;2022-09-25T05:31:20;15.00;99.90
23452;DHT22;11898;51.130;6.780;2022-09-25T05:33:49;15.00;99.90
23452;DHT22;11898;51.130;6.780;2022-09-25T05:36:18;15.00;99.90
23452;DHT22;11898;51.130;6.780;2022-09-25T05:38:46;14.90;99.90
23452;DHT22;11898;51.130;6.780;2022-09-25T05:41:15;14.90;99.90
23452;DHT22;11898;51.130;6.780;2022-09-25T05:43:45;14.90;99.90
23452;DHT22;11898;51.130;6.780;2022-09-25T05:46:14;14.80;99.90
23452;DHT22;11898;51.130;6.780;2022-09-25T05:48:43;14.80;99.90
23452;DHT22;11898;51.130;6.780;2022-09-25T05:51:11;14.80;99.90
23452;DHT22;11898;51.130;6.780;2022-09-25T05:53:40;14.70;99.90
23452;DHT22;11898;51.130;6.780;2022-09-25T05:56:08;14.70;99.90
23452;DHT22;11898;51.130;6.780;2022-09-25T05:58:38;14.70;99.90
23452;DHT22;11898;51.130;6.780;2022-09-25T06:01:07;14.60;99.90
23452;DHT22;11898;51.130;6.780;2022-09-25T06:03:35;14.60;99.90
23452;DHT22;11898;51.130;6.780;2022-09-25T06:06:04;14.50;99.90
23452;DHT22;11898;51.130;6.780;2022-09-25T06:08:33;14.40;99.90
23452;DHT22;11898;51.130;6.780;2022-09-25T06:11:05;14.40;99.90
23452;DHT22;11898;51.130;6.780;2022-09-25T06:13:34;14.30;99.90
23452;DHT22;11898;51.130;6.780;2022-09-25T06:16:04;14.20;99.90
23452;DHT22;11898;51.130;6.780;2022-09-25T06:18:34;14.20;99.90
23452;DHT22;11898;51.130;6.780;2022-09-25T06:21:04;14.10;99.90
23452;DHT22;11898;51.130;6.780;2022-09-25T06:23:33;14.10;99.90
23452;DHT22;11898;51.130;6.780;2022-09-25T06:26:03;14.10;99.90
23452;DHT22;11898;51.130;6.780;2022-09-25T06:28:32;14.10;99.90
23452;DHT22;11898;51.130;6.780;2022-09-25T06:31:02;14.20;99.90
23452;DHT22;11898;51.130;6.780;2022-09-25T06:33:31;14.20;99.90
23452;DHT22;11898;51.130;6.780;2022-09-25T06:36:00;14.30;99.90
23452;DHT22;11898;51.130;6.780;2022-09-25T06:38:29;14.50;99.90
23452;DHT22;11898;51.130;6.780;2022-09-25T06:40:59;14.70;99.90
23452;DHT22;11898;51.130;6.780;2022-09-25T06:43:28;14.90;99.90
23452;DHT22;11898;51.130;6.780;2022-09-25T06:45:59;15.20;99.90
23452;DHT22;11898;51.130;6.780;2022-09-25T06:48:30;15.50;99.90
23452;DHT22;11898;51.130;6.780;2022-09-25T06:50:59;15.90;99.90
23452;DHT22;11898;51.130;6.780;2022-09-25T06:53:28;16.20;99.90
23452;DHT22;11898;51.130;6.780;2022-09-25T06:55:57;16.50;99.90
23452;DHT22;11898;51.130;6.780;2022-09-25T06:58:29;16.90;99.90
23452;DHT22;11898;51.130;6.780;2022-09-25T07:00:58;17.10;99.90
23452;DHT22;11898;51.130;6.780;2022-09-25T07:03:26;17.40;99.90
23452;DHT22;11898;51.130;6.780;2022-09-25T07:06:16;17.60;99.90
23452;DHT22;11898;51.130;6.780;2022-09-25T07:08:47;17.90;99.90
23452;DHT22;11898;51.130;6.780;2022-09-25T07:11:20;18.20;99.90
23452;DHT22;11898;51.130;6.780;2022-09-25T07:13:49;18.40;99.90
23452;DHT22;11898;51.130;6.780;2022-09-25T07:38:51;18.70;99.90
23452;DHT22;11898;51.130;6.780;2022-09-25T07:41:20;18.10;99.90
23452;DHT22;11898;51.130;6.780;2022-09-25T07:43:55;17.80;99.90
23452;DHT22;11898;51.130;6.780;2022-09-25T07:46:28;17.60;99.90
23452;DHT22;11898;51.130;6.780;2022-09-25T07:48:57;17.50;99.90
23452;DHT22;11898;51.130;6.780;2022-09-25T07:51:27;17.50;99.90
23452;DHT22;11898;51.130;6.780;2022-09-25T07:53:56;17.50;99.90
23452;DHT22;11898;51.130;6.780;2022-09-25T07:56:25;17.50;99.90
23452;DHT22;11898;51.130;6.780;2022-09-25T07:58:54;17.50;99.90
23452;DHT22;11898;51.130;6.780;2022-09-25T08:01:22;17.50;99.90
23452;DHT22;11898;51.130;6.780;2022-09-25T08:03:51;17.50;99.90
23452;DHT22;11898;51.130;6.780;2022-09-25T08:06:20;17.60;99.90
23452;DHT22;11898;51.130;6.780;2022-09-25T08:08:49;17.80;99.90
23452;DHT22;11898;51.130;6.780;2022-09-25T08:11:17;18.00;99.90
23452;DHT22;11898;51.130;6.780;2022-09-25T08:13:46;18.10;99.90
23452;DHT22;11898;51.130;6.780;2022-09-25T08:16:17;18.30;99.90
23452;DHT22;11898;51.130;6.780;2022-09-25T08:18:48;18.30;99.90
23452;DHT22;11898;51.130;6.780;2022-09-25T08:21:19;18.40;99.90
23452;DHT22;11898;51.130;6.780;2022-09-25T08:23:49;18.40;99.90
23452;DHT22;11898;51.130;6.780;2022-09-25T08:26:20;18.50;99.90
23452;DHT22;11898;51.130;6.780;2022-09-25T08:28:49;18.60;99.90
23452;DHT22;11898;51.130;6.780;2022-09-25T08:31:18;18.70;99.90
23452;DHT22;11898;51.130;6.780;2022-09-25T08:33:48;18.60;99.90
23452;DHT22;11898;51.130;6.780;2022-09-25T08:36:17;18.40;99.90
23452;DHT22;11898;51.130;6.780;2022-09-25T08:38:46;18.20;99.90
23452;DHT22;11898;51.130;6.780;2022-09-25T08:41:26;18.20;99.90
23452;DHT22;11898;51.130;6.780;2022-09-25T08:44:08;18.00;99.90
23452;DHT22;11898;51.130;6.780;2022-09-25T08:49:40;17.80;99.90
23452;DHT22;11898;51.130;6.780;2022-09-25T08:52:17;17.80;99.90
23452;DHT22;11898;51.130;6.780;2022-09-25T08:54:40;18.00;99.90
23452;DHT22;11898;51.130;6.780;2022-09-25T08:57:29;17.90;99.90
23452;DHT22;11898;51.130;6.780;2022-09-25T09:00:04;18.10;99.90
23452;DHT22;11898;51.130;6.780;2022-09-25T09:02:45;18.10;99.90
23452;DHT22;11898;51.130;6.780;2022-09-25T09:05:28;18.10;99.90
23452;DHT22;11898;51.130;6.780;2022-09-25T09:08:06;18.10;99.90
23452;DHT22;11898;51.130;6.780;2022-09-25T09:10:39;18.20;99.90
23452;DHT22;11898;51.130;6.780;2022-09-25T09:13:35;18.20;99.90
23452;DHT22;11898;51.130;6.780;2022-09-25T09:16:06;18.20;99.90
23452;DHT22;11898;51.130;6.780;2022-09-25T09:18:37;18.10;99.90
23452;DHT22;11898;51.130;6.780;2022-09-25T09:24:06;18.00;99.90
23452;DHT22;11898;51.130;6.780;2022-09-25T09:35:20;18.30;99.90
23452;DHT22;11898;51.130;6.780;2022-09-25T16:32:28;19.00;99.90
23452;DHT22;11898;51.130;6.780;2022-09-25T16:35:04;20.90;99.90
23452;DHT22;11898;51.130;6.780;2022-09-25T16:37:32;20.60;99.90
23452;DHT22;11898;51.130;6.780;2022-09-25T16:40:14;20.50;99.90
23452;DHT22;11898;51.130;6.780;2022-09-25T16:42:38;20.50;99.90
23452;DHT22;11898;51.130;6.780;2022-09-25T16:47:43;20.40;99.90
23452;DHT22;11898;51.130;6.780;2022-09-25T16:50:14;20.50;99.90
23452;DHT22;11898;51.130;6.780;2022-09-25T16:52:43;20.50;99.90
23452;DHT22;11898;51.130;6.780;2022-09-25T16:55:18;20.60;99.90
23452;DHT22;11898;51.130;6.780;2022-09-25T16:57:47;20.60;99.90
23452;DHT22;11898;51.130;6.780;2022-09-25T17:00:22;20.60;99.90
23452;DHT22;11898;51.130;6.780;2022-09-25T17:02:47;20.60;99.90
23452;DHT22;11898;51.130;6.780;2022-09-25T17:05:21;20.50;99.90
23452;DHT22;11898;51.130;6.780;2022-09-25T17:07:59;20.40;99.90
23452;DHT22;11898;51.130;6.780;2022-09-25T17:10:28;20.30;99.90
23452;DHT22;11898;51.130;6.780;2022-09-25T17:13:00;20.10;99.90
23452;DHT22;11898;51.130;6.780;2022-09-25T17:15:31;20.00;99.90
23452;DHT22;11898;51.130;6.780;2022-09-25T17:18:01;19.80;99.90
23452;DHT22;11898;51.130;6.780;2022-09-25T17:20:30;19.70;99.90
23452;DHT22;11898;51.130;6.780;2022-09-25T17:22:59;19.50;99.90
23452;DHT22;11898;51.130;6.780;2022-09-25T17:25:47;19.40;99.90
23452;DHT22;11898;51.130;6.780;2022-09-25T17:28:15;19.30;99.90
23452;DHT22;11898;51.130;6.780;2022-09-25T17:30:44;19.10;99.90
23452;DHT22;11898;51.130;6.780;2022-09-25T17:33:22;19.00;99.90
23452;DHT22;11898;51.130;6.780;2022-09-25T17:36:01;19.00;99.90
23452;DHT22;11898;51.130;6.780;2022-09-25T17:38:33;18.90;99.90
23452;DHT22;11898;51.130;6.780;2022-09-25T17:41:11;18.80;99.90
23452;DHT22;11898;51.130;6.780;2022-09-25T17:43:33;18.80;99.90
23452;DHT22;11898;51.130;6.780;2022-09-25T17:46:02;18.80;99.90
23452;DHT22;11898;51.130;6.780;2022-09-25T17:48:31;18.70;99.90
23452;DHT22;11898;51.130;6.780;2022-09-25T17:51:08;18.60;99.90
23452;DHT22;11898;51.130;6.780;2022-09-25T17:53:32;18.60;99.90
23452;DHT22;11898;51.130;6.780;2022-09-25T17:56:01;18.60;99.90
23452;DHT22;11898;51.130;6.780;2022-09-25T17:58:30;18.60;99.90
23452;DHT22;11898;51.130;6.780;2022-09-25T18:01:00;18.50;99.90
23452;DHT22;11898;51.130;6.780;2022-09-25T18:03:31;18.50;99.90
23452;DHT22;11898;51.130;6.780;2022-09-25T18:05:59;18.40;99.90
23452;DHT22;11898;51.130;6.780;2022-09-25T18:08:28;18.30;99.90
23452;DHT22;11898;51.130;6.780;2022-09-25T18:10:57;18.30;99.90
23452;DHT22;11898;51.130;6.780;2022-09-25T18:13:26;18.20;99.90
23452;DHT22;11898;51.130;6.780;2022-09-25T18:15:56;18.20;99.90
23452;DHT22;11898;51.130;6.780;2022-09-25T18:18:26;18.10;99.90
23452;DHT22;11898;51.130;6.780;2022-09-25T18:20:59;18.10;99.90
23452;DHT22;11898;51.130;6.780;2022-09-25T18:23:45;18.00;99.90
23452;DHT22;11898;51.130;6.780;2022-09-25T18:26:14;18.00;99.90
23452;DHT22;11898;51.130;6.780;2022-09-25T18:28:43;17.90;99.90
23452;DHT22;11898;51.130;6.780;2022-09-25T18:31:11;17.90;99.90
23452;DHT22;11898;51.130;6.780;2022-09-25T18:33:40;17.80;99.90
23452;DHT22;11898;51.130;6.780;2022-09-25T18:36:11;17.80;99.90
23452;DHT22;11898;51.130;6.780;2022-09-25T18:38:39;17.70;99.90
23452;DHT22;11898;51.130;6.780;2022-09-25T18:41:08;17.60;99.90
23452;DHT22;11898;51.130;6.780;2022-09-25T18:43:36;17.50;99.90
23452;DHT22;11898;51.130;6.780;2022-09-25T18:46:05;17.40;99.90
23452;DHT22;11898;51.130;6.780;2022-09-25T18:48:34;17.30;99.90
23452;DHT22;11898;51.130;6.780;2022-09-25T18:51:04;17.30;99.90
23452;DHT22;11898;51.130;6.780;2022-09-25T18:53:33;17.20;99.90
23452;DHT22;11898;51.130;6.780;2022-09-25T18:56:02;17.20;99.90
23452;DHT22;11898;51.130;6.780;2022-09-25T18:58:30;17.20;99.90
23452;DHT22;11898;51.130;6.780;2022-09-25T19:00:59;17.10;99.90
23452;DHT22;11898;51.130;6.780;2022-09-25T19:03:28;17.10;99.90
23452;DHT22;11898;51.130;6.780;2022-09-25T19:05:58;17.10;99.90
23452;DHT22;11898;51.130;6.780;2022-09-25T19:08:30;17.10;99.90
23452;DHT22;11898;51.130;6.780;2022-09-25T19:10:59;17.10;99.90
23452;DHT22;11898;51.130;6.780;2022-09-25T19:13:28;17.10;99.90
23452;DHT22;11898;51.130;6.780;2022-09-25T19:15:56;17.00;99.90
23452;DHT22;11898;51.130;6.780;2022-09-25T19:18:25;17.00;99.90
23452;DHT22;11898;51.130;6.780;2022-09-25T19:20:54;17.00;99.90
23452;DHT22;11898;51.130;6.780;2022-09-25T19:23:24;17.00;99.90
23452;DHT22;11898;51.130;6.780;2022-09-25T19:25:58;17.00;99.90
23452;DHT22;11898;51.130;6.780;2022-09-25T19:28:30;17.00;99.90
23452;DHT22;11898;51.130;6.780;2022-09-25T19:31:04;16.90;99.90
23452;DHT22;11898;51.130;6.780;2022-09-25T19:33:35;16.90;99.90
23452;DHT22;11898;51.130;6.780;2022-09-25T19:36:07;16.80;99.90
23452;DHT22;11898;51.130;6.780;2022-09-25T19:38:37;16.80;99.90
23452;DHT22;11898;51.130;6.780;2022-09-25T19:41:25;16.80;99.90
23452;DHT22;11898;51.130;6.780;2022-09-25T19:43:55;16.80;99.90
23452;DHT22;11898;51.130;6.780;2022-09-25T19:46:25;16.70;99.90
23452;DHT22;11898;51.130;6.780;2022-09-25T19:48:56;16.70;99.90
23452;DHT22;11898;51.130;6.780;2022-09-25T19:51:31;16.70;99.90
23452;DHT22;11898;51.130;6.780;2022-09-25T19:54:00;16.70;99.90
23452;DHT22;11898;51.130;6.780;2022-09-25T19:56:28;16.70;99.90
23452;DHT22;11898;51.130;6.780;2022-09-25T19:58:57;16.60;99.90
23452;DHT22;11898;51.130;6.780;2022-09-25T20:01:26;16.60;99.90
23452;DHT22;11898;51.130;6.780;2022-09-25T20:03:56;16.50;99.90
23452;DHT22;11898;51.130;6.780;2022-09-25T20:06:26;16.40;99.90
23452;DHT22;11898;51.130;6.780;2022-09-25T20:08:58;16.30;99.90
23452;DHT22;11898;51.130;6.780;2022-09-25T20:11:31;16.50;99.90
23452;DHT22;11898;51.130;6.780;2022-09-25T20:14:02;16.20;99.90
23452;DHT22;11898;51.130;6.780;2022-09-25T20:16:31;16.10;99.90
23452;DHT22;11898;51.130;6.780;2022-09-25T20:19:02;16.00;99.90
23452;DHT22;11898;51.130;6.780;2022-09-25T20:21:35;15.90;99.90
23452;DHT22;11898;51.130;6.780;2022-09-25T20:24:06;15.90;99.90
23452;DHT22;11898;51.130;6.780;2022-09-25T20:26:35;15.80;99.90
23452;DHT22;11898;51.130;6.780;2022-09-25T20:29:10;15.70;99.90
23452;DHT22;11898;51.130;6.780;2022-09-25T20:31:41;15.60;99.90
23452;DHT22;11898;51.130;6.780;2022-09-25T20:34:15;15.60;99.90
23452;DHT22;11898;51.130;6.780;2022-09-25T20:36:44;15.50;99.90
23452;DHT22;11898;51.130;6.780;2022-09-25T20:39:13;15.50;99.90
23452;DHT22;11898;51.130;6.780;2022-09-25T20:41:43;15.50;99.90
23452;DHT22;11898;51.130;6.780;2022-09-25T20:44:12;15.50;99.90
23452;DHT22;11898;51.130;6.780;2022-09-25T20:46:41;15.40;99.90
23452;DHT22;11898;51.130;6.780;2022-09-25T20:49:10;15.40;99.90
23452;DHT22;11898;51.130;6.780;2022-09-25T20:51:39;15.40;99.90
23452;DHT22;11898;51.130;6.780;2022-09-25T20:54:09;15.40;99.90
23452;DHT22;11898;51.130;6.780;2022-09-25T20:56:38;15.40;99.90
23452;DHT22;11898;51.130;6.780;2022-09-25T20:59:11;15.30;99.90
23452;DHT22;11898;51.130;6.780;2022-09-25T21:01:41;15.30;99.90
23452;DHT22;11898;51.130;6.780;2022-09-25T21:04:10;15.30;99.90
23452;DHT22;11898;51.130;6.780;2022-09-25T21:06:40;15.20;99.90
23452;DHT22;11898;51.130;6.780;2022-09-25T21:09:18;15.20;99.90
23452;DHT22;11898;51.130;6.780;2022-09-25T21:11:43;15.20;99.90
23452;DHT22;11898;51.130;6.780;2022-09-25T21:14:17;15.10;99.90
23452;DHT22;11898;51.130;6.780;2022-09-25T21:16:47;15.10;99.90
23452;DHT22;11898;51.130;6.780;2022-09-25T21:19:17;15.10;99.90
23452;DHT22;11898;51.130;6.780;2022-09-25T21:21:46;15.10;99.90
23452;DHT22;11898;51.130;6.780;2022-09-25T21:24:18;15.10;99.90
23452;DHT22;11898;51.130;6.780;2022-09-25T21:26:47;15.10;99.90
23452;DHT22;11898;51.130;6.780;2022-09-25T21:29:16;15.10;99.90
23452;DHT22;11898;51.130;6.780;2022-09-25T21:31:45;15.00;99.90
23452;DHT22;11898;51.130;6.780;2022-09-25T21:34:15;15.00;99.90
23452;DHT22;11898;51.130;6.780;2022-09-25T21:36:45;15.00;99.90
23452;DHT22;11898;51.130;6.780;2022-09-25T21:39:13;15.00;99.90
23452;DHT22;11898;51.130;6.780;2022-09-25T21:41:43;15.00;99.90
23452;DHT22;11898;51.130;6.780;2022-09-25T21:44:13;15.00;99.90
23452;DHT22;11898;51.130;6.780;2022-09-25T21:46:42;15.00;99.90
23452;DHT22;11898;51.130;6.780;2022-09-25T21:49:19;14.90;99.90
23452;DHT22;11898;51.130;6.780;2022-09-25T21:51:48;14.90;99.90
23452;DHT22;11898;51.130;6.780;2022-09-25T21:54:17;14.90;99.90
23452;DHT22;11898;51.130;6.780;2022-09-25T21:56:46;14.90;99.90
23452;DHT22;11898;51.130;6.780;2022-09-25T21:59:15;14.90;99.90
23452;DHT22;11898;51.130;6.780;2022-09-25T22:01:44;14.90;99.90
23452;DHT22;11898;51.130;6.780;2022-09-25T22:04:14;14.90;99.90
23452;DHT22;11898;51.130;6.780;2022-09-25T22:06:45;14.80;99.90
23452;DHT22;11898;51.130;6.780;2022-09-25T22:09:16;14.90;99.90
23452;DHT22;11898;51.130;6.780;2022-09-25T22:11:45;14.90;99.90
23452;DHT22;11898;51.130;6.780;2022-09-25T22:14:15;14.90;99.90
23452;DHT22;11898;51.130;6.780;2022-09-25T22:16:45;14.90;99.90
23452;DHT22;11898;51.130;6.780;2022-09-25T22:19:18;14.90;99.90
23452;DHT22;11898;51.130;6.780;2022-09-25T22:21:48;14.90;99.90
23452;DHT22;11898;51.130;6.780;2022-09-25T22:24:17;14.90;99.90
23452;DHT22;11898;51.130;6.780;2022-09-25T22:26:47;14.90;99.90
23452;DHT22;11898;51.130;6.780;2022-09-25T22:29:18;14.90;99.90
23452;DHT22;11898;51.130;6.780;2022-09-25T22:31:47;14.90;99.90
23452;DHT22;11898;51.130;6.780;2022-09-25T22:34:21;14.90;99.90
23452;DHT22;11898;51.130;6.780;2022-09-25T22:36:51;14.90;99.90
23452;DHT22;11898;51.130;6.780;2022-09-25T22:39:21;14.90;99.90
23452;DHT22;11898;51.130;6.780;2022-09-25T22:41:51;14.90;99.90
23452;DHT22;11898;51.130;6.780;2022-09-25T22:44:20;14.80;99.90
23452;DHT22;11898;51.130;6.780;2022-09-25T22:46:49;14.80;99.90
23452;DHT22;11898;51.130;6.780;2022-09-25T22:49:17;14.80;99.90
23452;DHT22;11898;51.130;6.780;2022-09-25T22:51:46;14.70;99.90
23452;DHT22;11898;51.130;6.780;2022-09-25T22:54:15;14.70;99.90
23452;DHT22;11898;51.130;6.780;2022-09-25T22:56:44;14.60;99.90
23452;DHT22;11898;51.130;6.780;2022-09-25T22:59:14;14.50;99.90
23452;DHT22;11898;51.130;6.780;2022-09-25T23:01:47;14.50;99.90
23452;DHT22;11898;51.130;6.780;2022-09-25T23:04:19;14.40;99.90
23452;DHT22;11898;51.130;6.780;2022-09-25T23:06:49;14.40;99.90
23452;DHT22;11898;51.130;6.780;2022-09-25T23:09:20;14.30;99.90
23452;DHT22;11898;51.130;6.780;2022-09-25T23:11:48;14.30;99.90
23452;DHT22;11898;51.130;6.780;2022-09-25T23:14:23;14.20;99.90
23452;DHT22;11898;51.130;6.780;2022-09-25T23:16:52;14.10;99.90
23452;DHT22;11898;51.130;6.780;2022-09-25T23:19:22;14.10;99.90
23452;DHT22;11898;51.130;6.780;2022-09-25T23:21:52;14.00;99.90
23452;DHT22;11898;51.130;6.780;2022-09-25T23:24:22;14.00;99.90
23452;DHT22;11898;51.130;6.780;2022-09-25T23:26:51;14.00;99.90
23452;DHT22;11898;51.130;6.780;2022-09-25T23:29:21;14.00;99.90
23452;DHT22;11898;51.130;6.780;2022-09-25T23:31:50;13.90;99.90
23452;DHT22;11898;51.130;6.780;2022-09-25T23:34:19;13.90;99.90
23452;DHT22;11898;51.130;6.780;2022-09-25T23:36:48;13.90;99.90
23452;DHT22;11898;51.130;6.780;2022-09-25T23:39:18;13.90;99.90
23452;DHT22;11898;51.130;6.780;2022-09-25T23:41:47;13.90;99.90
23452;DHT22;11898;51.130;6.780;2022-09-25T23:44:16;13.90;99.90